Time;durP1;ratioP1;P1;durP2;ratioP2;P2;SDS_P1;SDS_P2;PMS_P1;PMS_P2;Temp;Humidity;BMP_temperature;BMP_pressure;BME280_temperature;BME280_humidity;BME280_pressure;Samples;Min_cycle;Max_cycle;Signal;HPM_P1;HPM_P2
2023/12/26 00:00:41;;;;;;;7.07;3.22;;;;;;;13.68;60.25;99137.47;2091952;28;19928;-62
2023/12/26 00:01:44;;;;;;;5.57;3.30;;;;;;;13.74;60.03;99137.69;2091194;28;20052;-63
2023/12/26 00:02:47;;;;;;;6.68;3.50;;;;;;;13.77;59.96;99133.88;2090267;28;20051;-63
2023/12/26 00:03:48;;;;;;;7.13;3.05;;;;;;;13.78;59.96;99135.53;2092569;28;20419;-63
2023/12/26 00:04:50;;;;;;;;;;;;;;;13.71;60.23;99129.19;2090117;28;20132;-63
2023/12/26 00:05:51;;;;;;;5.95;3.17;;;;;;;13.71;60.04;99131.84;2092927;28;19931;-62
2023/12/26 00:06:52;;;;;;;;;;;;;;;13.66;60.38;99132.31;2094541;28;20128;-62
2023/12/26 00:07:53;;;;;;;4.32;2.72;;;;;;;13.70;60.27;99132.81;2089425;28;19920;-63
2023/12/26 00:08:55;;;;;;;;;;;;;;;13.67;60.42;99131.31;2090863;28;20132;-62
2023/12/26 00:09:55;;;;;;;7.03;3.25;;;;;;;13.69;60.35;99134.66;2094355;28;19929;-62
2023/12/26 00:10:57;;;;;;;;;;;;;;;13.64;60.33;99131.63;2092239;28;20522;-61
2023/12/26 00:11:58;;;;;;;4.22;2.80;;;;;;;13.69;60.31;99137.31;2092142;28;19928;-62
2023/12/26 00:13:00;;;;;;;;;;;;;;;13.64;60.34;99134.28;2094208;28;20139;-63
2023/12/26 00:14:02;;;;;;;4.70;2.83;;;;;;;13.70;60.06;99128.31;2092244;28;19929;-62
2023/12/26 00:15:04;;;;;;;6.20;4.25;;;;;;;13.74;60.03;99134.19;2090123;28;20567;-63
2023/12/26 00:16:06;;;;;;;7.18;3.42;;;;;;;13.79;59.91;99132.72;2091153;28;20037;-62
2023/12/26 00:17:08;;;;;;;5.43;3.17;;;;;;;13.79;60.03;99126.53;2092745;28;20044;-62
2023/12/26 00:18:10;;;;;;;9.20;4.18;;;;;;;13.80;59.94;99128.22;2092127;28;20677;-62
2023/12/26 00:19:11;;;;;;;6.38;3.67;;;;;;;13.81;59.93;99128.03;2089813;28;20610;-61
2023/12/26 00:20:13;;;;;;;;;;;;;;;13.71;60.08;99129.19;2091949;28;20087;-62
2023/12/26 00:21:14;;;;;;;7.93;3.55;;;;;;;13.74;60.13;99128.88;2094060;28;19921;-62
2023/12/26 00:22:16;;;;;;;;;;;;;;;13.68;60.36;99130.34;2090978;28;20064;-62
2023/12/26 00:23:16;;;;;;;;;;;;;;;13.60;60.28;99132.97;2093090;28;19937;-62
2023/12/26 00:24:18;;;;;;;5.47;3.80;;;;;;;13.67;60.42;99127.81;2092023;28;19935;-62
2023/12/26 00:25:19;;;;;;;5.70;3.40;;;;;;;13.74;60.14;99131.53;2091051;28;20650;-62
2023/12/26 00:26:19;;;;;;;;;;;;;;;13.67;60.40;99133.97;2087162;28;20143;-61
2023/12/26 00:27:21;;;;;;;6.93;3.93;;;;;;;13.70;60.15;99127.50;2091471;28;19929;-62
2023/12/26 00:28:22;;;;;;;9.48;4.15;;;;;;;13.74;60.06;99120.88;2091806;28;20048;-62
2023/12/26 00:29:24;;;;;;;;;;;;;;;13.68;60.33;99124.13;2091906;28;20072;-62
2023/12/26 00:30:24;;;;;;;;;;;;;;;13.61;60.58;99127.44;2092012;28;19925;-62
2023/12/26 00:31:26;;;;;;;5.57;3.10;;;;;;;13.68;60.36;99122.34;2092816;28;19920;-61
2023/12/26 00:32:27;;;;;;;8.85;3.90;;;;;;;13.72;60.14;99126.34;2088746;28;20338;-62
2023/12/26 00:33:30;;;;;;;;;;;;;;;13.67;60.27;99122.47;2092812;28;20423;-62
2023/12/26 00:34:31;;;;;;;6.03;3.40;;;;;;;13.71;60.03;99114.03;2089491;28;19929;-62
2023/12/26 00:35:33;;;;;;;;;;;;;;;13.65;60.28;99122.66;2092201;28;21784;-63
2023/12/26 00:36:33;;;;;;;6.15;3.20;;;;;;;13.70;60.24;99122.16;2090324;28;19925;-62
2023/12/26 00:37:35;;;;;;;;;;;;;;;13.64;60.35;99123.63;2092586;28;20045;-63
2023/12/26 00:38:36;;;;;;;8.25;4.65;;;;;;;13.70;60.31;99123.00;2089825;28;19948;-63
2023/12/26 00:39:36;;;;;;;;;;;;;;;13.66;60.44;99128.81;2091462;28;20135;-63
2023/12/26 00:40:41;;;;;;;5.20;3.67;;;;;;;13.69;60.31;99116.00;2090693;28;19974;-63
2023/12/26 00:41:41;;;;;;;10.65;3.90;;;;;;;13.74;60.31;99123.53;2091105;28;20139;-62
2023/12/26 00:44:20;;;;;;;7.57;3.40;;;;;;;13.69;60.38;99125.84;2078620;28;19929;-61
2023/12/26 00:45:22;;;;;;;7.93;4.55;;;;;;;13.74;60.22;99128.88;2090837;28;20060;-62
2023/12/26 00:46:24;;;;;;;7.00;3.80;;;;;;;13.76;60.19;99133.03;2092234;28;21550;-62
2023/12/26 00:47:25;;;;;;;5.63;2.92;;;;;;;13.79;59.95;99126.53;2092095;28;20067;-62
2023/12/26 00:48:26;;;;;;;;;;;;;;;13.71;60.23;99126.53;2090048;28;20041;-61
2023/12/26 00:49:29;;;;;;;5.60;3.35;;;;;;;13.72;60.09;99125.50;2091740;28;19935;-62
2023/12/26 00:50:29;;;;;;;4.35;3.08;;;;;;;13.76;60.03;99121.50;2094047;28;20052;-62
2023/12/26 00:51:31;;;;;;;;;;;;;;;13.70;60.34;99127.50;2092841;28;20048;-63
2023/12/26 00:52:32;;;;;;;6.97;3.85;;;;;;;13.70;60.31;99128.31;2090385;28;19994;-61
2023/12/26 00:53:33;;;;;;;;;;;;;;;13.64;60.29;99129.78;2089774;28;20072;-62
2023/12/26 00:54:36;;;;;;;7.43;3.58;;;;;;;13.70;60.44;99122.16;2089513;28;19928;-63
2023/12/26 00:55:38;;;;;;;7.88;4.32;;;;;;;13.74;60.19;99119.03;2092791;28;20052;-62
2023/12/26 00:56:38;;;;;;;5.55;3.38;;;;;;;13.76;60.10;99122.38;2094378;28;20052;-62
2023/12/26 00:57:40;;;;;;;;;;;;;;;13.69;60.17;99125.84;2090769;28;20107;-62
2023/12/26 00:58:41;;;;;;;5.75;3.10;;;;;;;13.71;60.43;99118.53;2093980;28;19955;-61
2023/12/26 00:59:42;;;;;;;;;;;;;;;13.66;60.42;99121.66;2092792;28;20060;-63
2023/12/26 01:00:45;;;;;;;8.00;3.40;;;;;;;13.69;60.37;99126.66;2091353;28;19916;-62
2023/12/26 01:01:46;;;;;;;7.40;4.10;;;;;;;13.73;60.12;99119.19;2090029;28;20072;-62
2023/12/26 01:02:46;;;;;;;;;;;;;;;13.68;60.28;99124.13;2093030;28;20071;-62
2023/12/26 01:03:48;;;;;;;7.53;3.43;;;;;;;13.69;60.30;99126.66;2091898;28;19928;-62
2023/12/26 01:04:50;;;;;;;5.30;3.33;;;;;;;13.74;60.23;99123.53;2091235;28;20676;-62
2023/12/26 01:05:52;;;;;;;7.05;3.38;;;;;;;13.77;60.07;99125.88;2090897;28;20136;-63
2023/12/26 01:06:53;;;;;;;7.80;3.40;;;;;;;13.78;60.10;99122.19;2094576;28;20522;-63
2023/12/26 01:07:55;;;;;;;;;;;;;;;13.69;60.15;99116.00;2092462;28;20131;-62
2023/12/26 01:08:56;;;;;;;6.63;4.38;;;;;;;13.72;60.08;99117.50;2092964;28;19920;-63
2023/12/26 01:10:00;;;;;;;;;;;;;;;13.64;60.40;99115.63;2092212;28;20479;-63
2023/12/26 01:11:01;;;;;;;7.25;3.63;;;;;;;13.70;60.39;99122.16;2090329;28;19928;-62
2023/12/26 01:12:02;;;;;;;;;;;;;;;13.64;60.32;99119.13;2091556;28;20045;-61
2023/12/26 01:13:03;;;;;;;;;;;;;;;13.60;60.50;99117.78;2092882;28;19924;-62
2023/12/26 01:14:05;;;;;;;7.22;3.35;;;;;;;13.66;60.44;99115.50;2092102;28;19960;-62
2023/12/26 01:15:06;;;;;;;7.50;3.78;;;;;;;13.71;60.24;99114.03;2091779;28;20045;-61
2023/12/26 01:16:08;;;;;;;8.02;4.07;;;;;;;13.75;60.18;99119.84;2092314;28;20044;-62
2023/12/26 01:17:09;;;;;;;4.70;2.95;;;;;;;13.78;60.10;99119.53;2090853;28;20599;-61
2023/12/26 01:18:11;;;;;;;;;;;;;;;13.69;60.36;99118.66;2091867;28;20102;-62
2023/12/26 01:19:12;;;;;;;;;;;;;;;13.60;60.54;99115.13;2091042;28;19924;-61
2023/12/26 01:20:15;;;;;;;7.80;3.42;;;;;;;13.67;60.47;99122.47;2088106;28;19964;-63
2023/12/26 01:21:16;;;;;;;6.72;4.00;;;;;;;13.73;60.34;99116.50;2090358;28;20047;-62
2023/12/26 01:22:17;;;;;;;;;;;;;;;13.66;60.34;99115.50;2092981;28;20079;-61
2023/12/26 01:23:19;;;;;;;4.93;3.00;;;;;;;13.71;60.34;99123.84;2088787;28;20541;-62
2023/12/26 01:24:19;;;;;;;8.60;3.90;;;;;;;13.75;60.17;99119.84;2091551;28;20047;-62
2023/12/26 01:25:21;;;;;;;;;;;;;;;13.68;60.41;99119.69;2088679;28;20135;-62
2023/12/26 01:26:23;;;;;;;5.28;3.25;;;;;;;13.70;60.49;99117.66;2089587;28;19924;-62
2023/12/26 01:27:24;;;;;;;5.53;2.83;;;;;;;13.75;60.19;99127.84;2090328;28;20056;-62
2023/12/26 01:28:25;;;;;;;;;;;;;;;13.68;60.43;99134.81;2089957;28;20086;-62
2023/12/26 01:29:26;;;;;;;6.40;3.58;;;;;;;13.70;60.32;99125.66;2090950;28;19939;-63
2023/12/26 01:30:28;;;;;;;;;;;;;;;13.63;60.37;99122.81;2090887;28;20079;-62
2023/12/26 01:31:29;;;;;;;6.00;3.42;;;;;;;13.71;60.36;99130.00;2089103;28;19943;-62
2023/12/26 01:32:30;;;;;;;;;;;;;;;13.64;60.46;99129.78;2088712;28;20155;-62
2023/12/26 01:33:32;;;;;;;6.50;3.65;;;;;;;13.69;60.38;99120.50;2089449;28;20387;-62
2023/12/26 01:34:34;;;;;;;8.50;4.80;;;;;;;13.74;60.29;99123.53;2090922;28;20076;-63
2023/12/26 01:35:36;;;;;;;8.07;3.50;;;;;;;13.78;59.97;99135.53;2089659;28;20554;-63
2023/12/26 01:36:38;;;;;;;5.50;3.17;;;;;;;13.79;59.97;99129.19;2089701;28;20083;-63
2023/12/26 01:37:39;;;;;;;5.25;3.33;;;;;;;13.78;60.03;99128.34;2091124;28;20450;-61
2023/12/26 01:38:40;;;;;;;;;;;;;;;13.68;60.15;99125.00;2090185;28;20083;-62
2023/12/26 01:39:41;;;;;;;5.88;3.40;;;;;;;13.71;60.25;99121.19;2090975;28;19936;-62
2023/12/26 01:40:43;;;;;;;;;;;;;;;13.65;60.39;99133.31;2092456;28;20559;-62
2023/12/26 01:41:44;;;;;;;5.13;3.03;;;;;;;13.69;60.54;99121.34;2091277;28;19920;-62
2023/12/26 01:42:47;;;;;;;10.73;3.70;;;;;;;13.74;60.46;99128.88;2092405;28;20096;-61
2023/12/26 01:43:48;;;;;;;7.00;3.15;;;;;;;13.75;60.27;99126.00;2091458;28;20518;-61
2023/12/26 01:44:50;;;;;;;;;;;;;;;13.69;60.36;99125.84;2090299;28;20058;-62
2023/12/26 01:45:55;;;;;;;6.80;3.25;;;;;;;13.72;60.23;99125.50;2090143;28;19928;-62
2023/12/26 01:46:57;;;;;;;9.70;4.25;;;;;;;13.73;60.28;99122.66;2093356;28;20060;-61
2023/12/26 01:48:00;;;;;;;7.13;3.65;;;;;;;13.76;60.21;99118.84;2091725;28;20051;-63
2023/12/26 01:49:01;;;;;;;4.45;3.00;;;;;;;13.79;60.23;99121.19;2089798;28;20041;-62
2023/12/26 01:50:04;;;;;;;5.10;3.40;;;;;;;13.80;60.05;99128.22;2090563;28;20079;-62
2023/12/26 01:51:08;;;;;;;7.50;3.05;;;;;;;13.79;59.84;99119.38;2090583;28;20488;-62
2023/12/26 01:52:12;;;;;;;5.20;3.33;;;;;;;13.80;59.87;99128.22;2091059;28;20041;-63
2023/12/26 01:53:14;;;;;;;7.07;3.05;;;;;;;13.79;60.14;99122.06;2089810;28;20045;-63
2023/12/26 01:54:17;;;;;;;7.25;3.83;;;;;;;13.80;60.15;99128.22;2089423;28;20044;-63
2023/12/26 01:55:19;;;;;;;3.75;2.78;;;;;;;13.79;60.02;99121.19;2089465;28;20070;-63
2023/12/26 01:56:22;;;;;;;7.90;3.58;;;;;;;13.79;60.06;99122.06;2089220;28;20091;-61
2023/12/26 01:57:23;;;;;;;6.47;3.20;;;;;;;13.79;60.08;99123.84;2090422;28;20105;-61
2023/12/26 01:58:24;;;;;;;;;;;;;;;13.72;60.32;99125.50;2090465;28;20734;-62
2023/12/26 01:59:26;;;;;;;3.92;2.42;;;;;;;13.72;60.28;99126.34;2090054;28;19927;-61
2023/12/26 02:00:27;;;;;;;5.18;3.28;;;;;;;13.76;60.35;99126.84;2089097;28;20049;-62
2023/12/26 02:01:29;;;;;;;;;;;;;;;13.68;60.65;99119.69;2091398;28;20135;-62
2023/12/26 02:02:32;;;;;;;5.90;3.53;;;;;;;13.72;60.45;99120.19;2089496;28;20391;-61
2023/12/26 02:03:34;;;;;;;7.90;4.13;;;;;;;13.74;60.40;99121.69;2094143;28;20045;-62
2023/12/26 02:04:38;;;;;;;7.30;4.05;;;;;;;13.77;60.28;99120.53;2091370;28;20048;-63
2023/12/26 02:05:41;;;;;;;5.32;2.92;;;;;;;13.79;60.19;99126.53;2089792;28;20067;-63
2023/12/26 02:06:43;;;;;;;6.45;3.42;;;;;;;13.80;60.06;99121.03;2090961;28;20057;-63
2023/12/26 02:07:44;;;;;;;5.45;3.15;;;;;;;13.81;60.14;99124.53;2090326;28;20086;-62
2023/12/26 02:08:46;;;;;;;;;;;;;;;13.70;60.09;99122.16;2093332;28;20507;-63
2023/12/26 02:09:47;;;;;;;5.00;3.40;;;;;;;13.72;60.15;99129.00;2089559;28;19924;-63
2023/12/26 02:10:48;;;;;;;;;;;;;;;13.66;60.43;99126.16;2088954;28;20135;-63
2023/12/26 02:11:50;;;;;;;5.82;3.03;;;;;;;13.69;60.36;99131.16;2087991;28;19928;-63
2023/12/26 02:12:52;;;;;;;3.67;2.60;;;;;;;13.73;60.16;99132.50;2089801;28;20063;-61
2023/12/26 02:13:53;;;;;;;7.78;3.08;;;;;;;13.77;60.29;99123.22;2092659;28;20094;-62
2023/12/26 02:14:54;;;;;;;;;;;;;;;13.69;60.31;99136.50;2091704;28;20055;-63
2023/12/26 02:15:57;;;;;;;;;;;;;;;13.62;60.58;99130.94;2093238;28;20406;-63
2023/12/26 02:17:01;;;;;;;6.03;3.00;;;;;;;13.69;60.50;99131.16;2093225;28;20359;-63
2023/12/26 02:18:03;;;;;;;5.35;2.88;;;;;;;13.72;60.38;99126.34;2089988;28;20056;-61
2023/12/26 02:19:05;;;;;;;3.28;2.45;;;;;;;13.74;60.20;99134.19;2088611;28;20044;-62
2023/12/26 02:20:07;;;;;;;4.40;2.88;;;;;;;13.78;60.16;99127.53;2088805;28;20045;-63
2023/12/26 02:21:09;;;;;;;5.15;3.30;;;;;;;13.77;59.99;99121.38;2090493;28;20041;-63
2023/12/26 02:22:12;;;;;;;5.75;3.13;;;;;;;13.81;60.04;99124.53;2092144;28;20419;-63
2023/12/26 02:23:14;;;;;;;9.23;2.95;;;;;;;13.81;59.95;99120.03;2088739;28;20049;-62
2023/12/26 02:24:16;;;;;;;6.93;3.65;;;;;;;13.79;60.04;99118.53;2094860;28;20044;-63
2023/12/26 02:25:20;;;;;;;5.03;2.92;;;;;;;13.78;60.18;99119.53;2092229;28;20549;-62
2023/12/26 02:26:21;;;;;;;5.70;2.90;;;;;;;13.79;60.10;99121.19;2092433;28;20140;-63
2023/12/26 02:27:28;;;;;;;4.90;2.65;;;;;;;13.80;59.98;99117.56;2094867;28;20538;-63
2023/12/26 02:28:32;;;;;;;3.92;2.72;;;;;;;13.81;60.18;99120.03;2094788;28;20044;-61
2023/12/26 02:29:34;;;;;;;6.40;3.40;;;;;;;13.80;60.04;99117.56;2093134;28;20052;-63
2023/12/26 02:30:36;;;;;;;4.53;2.60;;;;;;;13.81;59.94;99116.53;2091303;28;20045;-62
2023/12/26 02:31:41;;;;;;;7.18;2.70;;;;;;;13.81;60.06;99113.88;2091012;28;20052;-62
2023/12/26 02:32:43;;;;;;;3.97;2.53;;;;;;;13.79;60.02;99113.19;2091215;28;20422;-62
2023/12/26 02:33:46;;;;;;;7.38;3.72;;;;;;;13.80;60.16;99112.22;2092467;28;20048;-62
2023/12/26 02:34:50;;;;;;;4.40;3.03;;;;;;;13.80;60.04;99112.22;2092414;28;20037;-62
2023/12/26 02:35:52;;;;;;;5.28;3.40;;;;;;;13.80;59.95;99115.72;2093939;28;20574;-63
2023/12/26 02:36:53;;;;;;;4.63;2.60;;;;;;;13.80;59.89;99112.22;2091545;28;20048;-63
2023/12/26 02:37:55;;;;;;;6.90;4.05;;;;;;;13.81;59.95;99113.88;2091484;28;20149;-63
2023/12/26 02:38:56;;;;;;;6.85;3.15;;;;;;;13.82;60.08;99111.06;2090350;28;20052;-62
2023/12/26 02:39:59;;;;;;;;;;;;;;;13.72;60.14;99109.50;2093225;28;20087;-63
2023/12/26 02:41:00;;;;;;;4.43;2.67;;;;;;;13.74;60.03;99107.53;2091726;28;19920;-61
2023/12/26 02:42:02;;;;;;;;;;;;;;;13.66;60.28;99105.66;2090194;28;20068;-63
2023/12/26 02:43:03;;;;;;;8.40;2.47;;;;;;;13.69;60.41;99099.19;2092213;28;20008;-62
2023/12/26 02:44:05;;;;;;;4.72;3.00;;;;;;;13.74;60.43;99103.03;2091836;28;20118;-62
2023/12/26 02:45:07;;;;;;;4.47;2.70;;;;;;;13.76;60.18;99103.72;2091140;28;20049;-63
2023/12/26 02:46:09;;;;;;;5.78;2.83;;;;;;;13.77;60.05;99102.72;2093275;28;20546;-62
2023/12/26 02:47:10;;;;;;;6.55;2.67;;;;;;;13.79;60.18;99103.38;2089723;28;20450;-61
2023/12/26 02:48:12;;;;;;;;;;;;;;;13.69;60.17;99100.00;2091624;28;20131;-63
2023/12/26 02:49:12;;;;;;;6.45;2.72;;;;;;;13.70;60.33;99101.66;2090154;28;19931;-63
2023/12/26 02:50:14;;;;;;;;;;;;;;;13.64;60.39;99105.81;2091169;28;20495;-63
2023/12/26 02:51:15;;;;;;;;;;;;;;;13.60;60.54;99109.81;2092944;28;19931;-64
2023/12/26 02:52:17;;;;;;;4.07;2.43;;;;;;;13.67;60.57;99103.81;2091442;28;20028;-62
2023/12/26 02:53:18;;;;;;;3.45;1.83;;;;;;;13.70;60.59;99101.66;2089559;28;20292;-62
2023/12/26 02:54:20;;;;;;;;;;;;;;;13.62;60.47;99094.50;2092859;28;20047;-62
2023/12/26 02:55:22;;;;;;;6.53;2.83;;;;;;;13.68;60.44;99097.50;2090550;28;19921;-63
2023/12/26 02:56:24;;;;;;;5.00;2.58;;;;;;;13.73;60.23;99096.00;2090953;28;20056;-62
2023/12/26 02:57:24;;;;;;;8.57;3.97;;;;;;;13.75;60.14;99102.03;2094041;28;20055;-61
2023/12/26 02:58:26;;;;;;;;;;;;;;;13.68;60.38;99102.81;2093082;28;20076;-62
2023/12/26 02:59:28;;;;;;;3.75;2.22;;;;;;;13.69;60.42;99100.00;2091853;28;19928;-63
2023/12/26 03:00:30;;;;;;;5.85;2.95;;;;;;;13.74;60.14;99099.53;2088728;28;20057;-62
2023/12/26 03:01:30;;;;;;;5.50;2.47;;;;;;;13.76;60.04;99105.53;2092576;28;20056;-64
2023/12/26 03:02:31;;;;;;;;;;;;;;;13.67;60.32;99101.16;2091712;28;20083;-63
2023/12/26 03:03:33;;;;;;;5.40;3.00;;;;;;;13.70;60.30;99100.84;2092517;28;20011;-63
2023/12/26 03:04:35;;;;;;;5.53;2.53;;;;;;;13.73;60.32;99097.84;2087787;28;20051;-63
2023/12/26 03:05:37;;;;;;;5.07;2.70;;;;;;;13.76;60.26;99098.38;2090143;28;20144;-64
2023/12/26 03:06:38;;;;;;;5.05;2.80;;;;;;;13.75;60.02;99093.19;2088915;28;20049;-61
2023/12/26 03:07:39;;;;;;;;;;;;;;;13.69;60.51;99101.84;2092125;28;20051;-62
2023/12/26 03:08:40;;;;;;;;;;;;;;;13.60;60.77;99096.47;2091693;28;19928;-63
2023/12/26 03:09:42;;;;;;;3.77;2.77;;;;;;;13.66;60.60;99104.84;2090700;28;19974;-62
2023/12/26 03:10:44;;;;;;;4.18;2.60;;;;;;;13.71;60.46;99100.69;2090288;28;20523;-63
2023/12/26 03:11:46;;;;;;;5.15;3.08;;;;;;;13.75;60.19;99099.34;2091410;28;20187;-62
2023/12/26 03:12:46;;;;;;;7.57;2.58;;;;;;;13.77;60.20;99101.88;2089134;28;21190;-64
2023/12/26 03:13:47;;;;;;;;;;;;;;;13.67;60.39;99099.31;2090911;28;20048;-62
2023/12/26 03:14:49;;;;;;;5.30;2.70;;;;;;;13.70;60.38;99100.84;2092301;28;19941;-61
2023/12/26 03:15:50;;;;;;;4.88;2.72;;;;;;;13.74;60.29;99096.88;2090106;28;20045;-62
2023/12/26 03:16:51;;;;;;;;;;;;;;;13.66;60.50;99091.50;2092196;28;20127;-61
2023/12/26 03:17:53;;;;;;;6.82;2.35;;;;;;;13.71;60.34;99097.19;2090548;28;19924;-63
2023/12/26 03:18:55;;;;;;;3.88;2.70;;;;;;;13.72;60.38;99094.34;2089880;28;20109;-63
2023/12/26 03:19:56;;;;;;;3.15;2.00;;;;;;;13.78;60.13;99092.88;2088426;28;20037;-62
2023/12/26 03:20:58;;;;;;;;;;;;;;;13.69;60.44;99100.00;2091955;28;20045;-63
2023/12/26 03:21:58;;;;;;;;;;;;;;;13.61;60.62;99099.97;2090842;28;20426;-64
2023/12/26 03:22:59;;;;;;;3.78;2.45;;;;;;;13.66;60.53;99096.84;2090901;28;20067;-62
2023/12/26 03:24:01;;;;;;;;;;;;;;;13.62;60.57;99098.97;2091471;28;20474;-62
2023/12/26 03:25:01;;;;;;;;;;;;;;;13.57;60.85;99095.97;2092506;28;20375;-63
2023/12/26 03:26:05;;;;;;;4.97;2.57;;;;;;;13.63;60.51;99101.47;2091254;28;19928;-61
2023/12/26 03:27:07;;;;;;;4.32;2.47;;;;;;;13.69;60.36;99100.00;2090279;28;20041;-63
2023/12/26 03:28:09;;;;;;;4.20;2.50;;;;;;;13.73;60.33;99095.19;2091658;28;20054;-61
2023/12/26 03:29:10;;;;;;;3.30;2.35;;;;;;;13.75;60.30;99096.69;2090064;28;20052;-63
2023/12/26 03:30:12;;;;;;;;;;;;;;;13.67;60.43;99095.81;2091140;28;20083;-62
2023/12/26 03:31:13;;;;;;;3.83;2.17;;;;;;;13.69;60.48;99089.34;2091434;28;19932;-63
2023/12/26 03:32:16;;;;;;;;;;;;;;;13.63;60.50;99093.47;2089660;28;20519;-63
2023/12/26 03:33:18;;;;;;;5.00;2.38;;;;;;;13.68;60.41;99097.50;2091203;28;19921;-63
2023/12/26 03:34:18;;;;;;;3.90;2.35;;;;;;;13.72;60.21;99094.34;2091060;28;20052;-62
2023/12/26 03:35:20;;;;;;;;;;;;;;;13.63;60.45;99088.16;2091380;28;20594;-62
2023/12/26 03:36:21;;;;;;;;;;;;;;;13.58;60.62;99093.13;2089906;28;19936;-63
2023/12/26 03:37:22;;;;;;;2.87;1.80;;;;;;;13.64;60.67;99096.97;2088192;28;19971;-63
2023/12/26 03:38:23;;;;;;;3.63;1.95;;;;;;;13.71;60.34;99091.88;2092413;28;20055;-64
2023/12/26 03:39:25;;;;;;;;;;;;;;;13.63;60.53;99098.00;2092145;28;20113;-62
2023/12/26 03:40:26;;;;;;;4.70;2.22;;;;;;;13.67;60.60;99091.31;2091415;28;20289;-61
2023/12/26 03:41:29;;;;;;;;;;;;;;;13.62;60.75;99090.97;2091838;28;20462;-62
2023/12/26 03:42:31;;;;;;;3.40;2.20;;;;;;;13.67;60.63;99091.31;2093133;28;19927;-63
2023/12/26 03:43:33;;;;;;;7.28;2.75;;;;;;;13.71;60.33;99090.03;2092813;28;20051;-62
2023/12/26 03:44:35;;;;;;;4.20;2.40;;;;;;;13.74;60.33;99092.38;2091065;28;20040;-63
2023/12/26 03:45:37;;;;;;;4.82;2.47;;;;;;;13.76;60.35;99089.53;2085359;28;21644;-63
2023/12/26 03:46:38;;;;;;;4.93;2.30;;;;;;;13.77;60.24;99091.22;2089233;28;20059;-62
2023/12/26 03:47:39;;;;;;;;;;;;;;;13.68;60.46;99093.03;2090753;28;20083;-62
2023/12/26 03:48:40;;;;;;;3.50;2.30;;;;;;;13.72;60.34;99093.53;2090589;28;20406;-62
2023/12/26 03:49:42;;;;;;;;;;;;;;;13.63;60.68;99090.00;2094069;28;20139;-62
2023/12/26 03:50:43;;;;;;;4.82;2.55;;;;;;;13.67;60.49;99088.66;2088963;28;20299;-61
2023/12/26 03:51:46;;;;;;;;;;;;;;;13.61;60.62;99087.47;2089678;28;20128;-61
2023/12/26 03:52:47;;;;;;;3.75;2.22;;;;;;;13.68;60.71;99087.69;2088427;28;19924;-61
2023/12/26 03:53:49;;;;;;;;;;;;;;;13.63;60.64;99092.66;2091004;28;20072;-62
2023/12/26 03:54:51;;;;;;;3.75;1.88;;;;;;;13.66;60.64;99089.66;2092430;28;20298;-61
2023/12/26 03:55:53;;;;;;;3.35;2.00;;;;;;;13.71;60.28;99089.19;2088785;28;20591;-62
2023/12/26 03:56:55;;;;;;;4.78;2.40;;;;;;;13.72;60.32;99093.53;2091284;28;20415;-62
2023/12/26 03:57:57;;;;;;;5.85;2.53;;;;;;;13.73;60.30;99090.69;2091675;28;20060;-63
2023/12/26 03:58:59;;;;;;;4.20;2.13;;;;;;;13.76;60.25;99090.38;2091305;28;20052;-62
2023/12/26 04:00:00;;;;;;;3.83;2.17;;;;;;;13.75;60.29;99090.53;2090406;28;20056;-63
2023/12/26 04:01:01;;;;;;;4.65;2.90;;;;;;;13.75;60.39;99082.53;2090028;28;20036;-62
2023/12/26 04:02:03;;;;;;;;;;;;;;;13.66;60.35;99088.84;2090966;28;20076;-63
2023/12/26 04:03:04;;;;;;;;;;;;;;;13.60;60.86;99087.66;2092469;28;21100;-62
2023/12/26 04:04:06;;;;;;;4.53;2.38;;;;;;;13.64;60.48;99079.16;2090190;28;19928;-62
2023/12/26 04:05:08;;;;;;;5.00;2.45;;;;;;;13.68;60.63;99079.69;2091301;28;20431;-63
2023/12/26 04:06:10;;;;;;;4.72;2.53;;;;;;;13.71;60.31;99082.03;2091811;28;20040;-62
2023/12/26 04:07:11;;;;;;;3.50;2.05;;;;;;;13.74;60.35;99080.88;2092128;28;20060;-63
2023/12/26 04:08:13;;;;;;;3.90;1.83;;;;;;;13.76;60.23;99086.84;2043579;28;1319674;-63
2023/12/26 04:09:14;;;;;;;5.18;2.58;;;;;;;13.76;60.19;99086.84;2091791;28;20431;-62
2023/12/26 04:10:15;;;;;;;3.03;1.85;;;;;;;13.79;60.10;99086.53;2088853;28;20041;-62
2023/12/26 04:11:17;;;;;;;;;;;;;;;13.67;60.31;99087.84;2091131;28;20412;-63
2023/12/26 04:12:19;;;;;;;;;;;;;;;13.59;60.58;99077.97;2091630;28;19932;-63
2023/12/26 04:13:21;;;;;;;3.65;2.53;;;;;;;13.64;60.53;99081.81;2092111;28;19928;-62
2023/12/26 04:14:22;;;;;;;3.53;2.00;;;;;;;13.69;60.49;99088.50;2089370;28;20059;-63
2023/12/26 04:15:24;;;;;;;;;;;;;;;13.62;60.54;99083.84;2091006;28;20045;-62
2023/12/26 04:16:25;;;;;;;3.50;1.85;;;;;;;13.68;60.46;99086.81;2089297;28;19974;-62
2023/12/26 04:17:26;;;;;;;;;;;;;;;13.61;60.56;99082.13;2090270;28;20602;-62
2023/12/26 04:18:27;;;;;;;3.38;1.80;;;;;;;13.67;60.59;99086.00;2089438;28;19935;-63
2023/12/26 04:19:29;;;;;;;;;;;;;;;13.59;60.71;99078.78;2092407;28;20136;-62
2023/12/26 04:20:30;;;;;;;3.97;1.90;;;;;;;13.65;60.59;99085.34;2090316;28;20352;-63
2023/12/26 04:21:31;;;;;;;;;;;;;;;13.60;60.69;99084.97;2093224;28;20106;-62
2023/12/26 04:22:32;;;;;;;;;;;;;;;13.55;60.87;99088.13;2093009;28;19943;-63
2023/12/26 04:23:33;;;;;;;3.90;1.87;;;;;;;13.61;60.88;99081.31;2092336;28;21723;-63
2023/12/26 04:24:34;;;;;;;;;;;;;;;13.57;60.66;99083.47;2089923;28;20311;-64
2023/12/26 04:25:35;;;;;;;2.97;1.98;;;;;;;13.61;60.82;99090.13;2090017;28;19920;-63
2023/12/26 04:26:37;;;;;;;;;;;;;;;13.59;60.77;99088.63;2089990;28;20503;-62
2023/12/26 04:27:39;;;;;;;5.63;2.20;;;;;;;13.66;60.55;99084.34;2089717;28;19921;-62
2023/12/26 04:28:41;;;;;;;2.17;1.50;;;;;;;13.69;60.55;99091.19;2091774;28;20159;-63
2023/12/26 04:29:42;;;;;;;5.03;2.22;;;;;;;13.72;60.19;99091.69;2093243;28;20420;-63
2023/12/26 04:30:44;;;;;;;;;;;;;;;13.63;60.63;99087.31;2092360;28;20127;-61
2023/12/26 04:31:45;;;;;;;4.72;2.40;;;;;;;13.67;60.47;99090.50;2093414;28;19920;-62
2023/12/26 04:32:46;;;;;;;;;;;;;;;13.61;60.56;99092.81;2090829;28;20094;-61
2023/12/26 04:33:47;;;;;;;3.53;2.78;;;;;;;13.67;60.48;99090.50;2091084;28;19920;-61
2023/12/26 04:34:49;;;;;;;;;;;;;;;13.58;60.67;99085.13;2092726;28;20071;-62
2023/12/26 04:35:49;;;;;;;4.75;2.40;;;;;;;13.63;60.70;99093.47;2089019;28;19932;-63
2023/12/26 04:36:51;;;;;;;;;;;;;;;13.57;60.59;99086.13;2092685;28;20083;-62
2023/12/26 04:37:52;;;;;;;5.70;2.10;;;;;;;13.62;60.57;99083.84;2089778;28;19920;-63
2023/12/26 04:38:53;;;;;;;;;;;;;;;13.56;60.71;99083.63;2090775;28;20165;-63
2023/12/26 04:39:54;;;;;;;4.97;2.60;;;;;;;13.62;60.63;99090.97;2091106;28;19925;-61
2023/12/26 04:40:56;;;;;;;;;;;;;;;13.58;60.84;99086.97;2089083;28;20076;-62
2023/12/26 04:41:57;;;;;;;4.93;1.98;;;;;;;13.63;60.43;99085.50;2091860;28;19921;-60
2023/12/26 04:43:02;;;;;;;;;;;;;;;13.58;60.80;99084.31;2092848;28;20075;-62
2023/12/26 04:44:03;;;;;;;4.57;2.13;;;;;;;13.62;60.79;99089.16;2088410;28;20387;-62
2023/12/26 04:45:06;;;;;;;4.55;2.00;;;;;;;13.69;60.47;99088.50;2090784;28;20418;-62
2023/12/26 04:46:07;;;;;;;4.07;2.65;;;;;;;13.73;60.51;99095.19;2089114;28;20052;-63
2023/12/26 04:47:08;;;;;;;;;;;;;;;13.63;60.67;99090.81;2090290;28;20176;-62
2023/12/26 04:48:09;;;;;;;4.28;2.08;;;;;;;13.67;60.60;99094.00;2090305;28;19936;-64
2023/12/26 04:49:11;;;;;;;;;;;;;;;13.61;60.55;99089.31;2091817;28;20139;-63
2023/12/26 04:50:12;;;;;;;;;;;;;;;13.55;60.84;99088.13;2090748;28;20406;-63
2023/12/26 04:51:15;;;;;;;3.87;2.20;;;;;;;13.61;60.68;99090.13;2091740;28;19956;-62
2023/12/26 04:52:18;;;;;;;1.95;1.50;;;;;;;13.66;60.51;99084.34;2091404;28;20306;-63
2023/12/26 04:53:19;;;;;;;6.22;2.17;;;;;;;13.72;60.19;99089.03;2088781;28;20044;-63
2023/12/26 04:54:21;;;;;;;;;;;;;;;13.64;60.43;99092.47;2089657;28;20126;-61
2023/12/26 04:55:21;;;;;;;2.83;2.35;;;;;;;13.67;60.46;99087.84;2089560;28;19920;-63
2023/12/26 04:56:23;;;;;;;;;;;;;;;13.60;60.81;99088.47;2090605;28;20112;-62
2023/12/26 04:57:24;;;;;;;5.25;2.08;;;;;;;13.63;60.54;99088.16;2090635;28;20392;-63
2023/12/26 04:58:27;;;;;;;;;;;;;;;13.59;60.83;99092.13;2093439;28;20048;-63
2023/12/26 04:59:28;;;;;;;4.32;2.22;;;;;;;13.64;60.63;99092.47;2088876;28;20469;-62
2023/12/26 05:00:30;;;;;;;;;;;;;;;13.58;60.71;99087.78;2090992;28;20127;-63